createdAt,value
2019-05-28T00:00:11.664Z,13.03
2019-05-28T00:02:46.128Z,18.40
2019-05-28T00:05:23.432Z,17.17
2019-05-28T00:07:58.115Z,14.73
2019-05-28T00:10:32.725Z,15.05
2019-05-28T00:13:13.423Z,13.60
2019-05-28T00:15:42.453Z,16.03
2019-05-28T00:18:13.904Z,12.78
2019-05-28T00:20:42.520Z,11.75
2019-05-28T00:23:12.082Z,18.82
2019-05-28T00:25:43.444Z,14.30
2019-05-28T00:28:36.152Z,16.85
2019-05-28T00:31:07.545Z,10.63
2019-05-28T00:33:51.899Z,19.57
2019-05-28T00:36:20.575Z,18.07
2019-05-28T00:38:56.180Z,20.95
2019-05-28T00:41:27.577Z,15.80
2019-05-28T00:43:58.792Z,11.50
2019-05-28T00:46:34.277Z,19.12
2019-05-28T00:49:05.592Z,15.63
2019-05-28T00:51:42.372Z,21.82
2019-05-28T00:54:14.195Z,17.42
2019-05-28T00:56:59.820Z,22.10
2019-05-28T00:59:30.949Z,18.77
2019-05-28T01:01:59.634Z,21.70
2019-05-28T01:04:30.934Z,18.15
2019-05-28T01:07:27.681Z,17.80
2019-05-28T01:10:07.426Z,19.42
2019-05-28T01:12:36.090Z,16.93
2019-05-28T01:15:08.102Z,20.85
2019-05-28T01:17:37.007Z,15.50
2019-05-28T01:20:09.775Z,15.45
2019-05-28T01:22:41.711Z,18.62
2019-05-28T01:25:34.198Z,20.27
2019-05-28T01:28:05.998Z,15.43
2019-05-28T01:30:53.982Z,21.87
2019-05-28T01:33:20.028Z,18.48
2019-05-28T01:35:51.303Z,18.67
2019-05-28T01:38:22.572Z,18.23
2019-05-28T01:41:02.013Z,21.45
2019-05-28T01:43:46.580Z,14.95
2019-05-28T01:46:15.230Z,24.27
2019-05-28T01:48:46.499Z,22.80
2019-05-28T01:51:18.311Z,17.75
2019-05-28T01:53:49.597Z,22.30
2019-05-28T01:56:21.002Z,26.68
2019-05-28T01:58:52.619Z,22.87
2019-05-28T02:01:45.473Z,19.67
2019-05-28T02:04:21.083Z,15.30
2019-05-28T02:06:54.314Z,18.67
2019-05-28T02:09:28.799Z,22.17
2019-05-28T02:12:37.736Z,20.85
2019-05-28T02:15:10.548Z,23.55
2019-05-28T02:17:53.777Z,20.40
2019-05-28T02:20:22.527Z,22.45
2019-05-28T02:23:24.093Z,26.23
2019-05-28T02:25:52.675Z,22.20
2019-05-28T02:28:23.877Z,24.82
2019-05-28T02:30:55.156Z,23.92
2019-05-28T02:34:15.422Z,23.57
2019-05-28T02:36:50.064Z,22.80
2019-05-28T02:39:30.643Z,25.17
2019-05-28T02:42:02.040Z,26.60
2019-05-28T02:44:33.281Z,31.55
2019-05-28T02:47:24.910Z,25.08
2019-05-28T02:49:56.570Z,30.15
2019-05-28T02:52:44.450Z,23.70
2019-05-28T02:55:15.678Z,28.85
2019-05-28T02:57:48.039Z,23.38
2019-05-28T03:00:22.600Z,28.55
2019-05-28T03:02:55.483Z,26.37
2019-05-28T03:05:44.088Z,32.85
2019-05-28T03:08:35.531Z,28.70
2019-05-28T03:11:04.825Z,30.95
2019-05-28T03:13:39.420Z,28.15
2019-05-28T03:17:05.742Z,22.67
2019-05-28T03:19:43.157Z,23.42
2019-05-28T03:23:03.370Z,30.77
2019-05-28T03:25:39.912Z,28.50
2019-05-28T03:28:10.644Z,27.17
2019-05-28T03:30:45.512Z,26.80
2019-05-28T03:33:16.814Z,27.07
2019-05-28T03:35:50.191Z,29.82
2019-05-28T03:38:26.265Z,26.00
2019-05-28T03:40:57.971Z,31.05
2019-05-28T03:43:36.498Z,24.80
2019-05-28T03:46:08.272Z,30.00
2019-05-28T03:49:19.217Z,33.75
2019-05-28T03:51:55.232Z,32.67
2019-05-28T03:54:38.898Z,27.87
2019-05-28T03:57:16.301Z,29.07
2019-05-28T03:59:50.926Z,34.23
2019-05-28T04:02:31.807Z,34.05
2019-05-28T04:05:01.315Z,30.70
2019-05-28T04:07:33.101Z,30.57
2019-05-28T04:10:07.962Z,35.52
2019-05-28T04:12:45.701Z,31.85
2019-05-28T04:15:23.387Z,34.33
2019-05-28T04:18:06.839Z,34.50
2019-05-28T04:24:23.459Z,36.42
2019-05-28T04:26:57.966Z,32.20
2019-05-28T04:29:29.256Z,31.17
2019-05-28T04:32:03.675Z,34.15
2019-05-28T04:34:38.128Z,32.85
2019-05-28T04:41:09.102Z,32.83
2019-05-28T04:43:49.776Z,39.88
2019-05-28T04:46:24.127Z,33.18
2019-05-28T04:49:00.566Z,30.70
2019-05-28T04:51:35.047Z,33.08
2019-05-28T04:54:10.554Z,28.32
2019-05-28T04:56:45.173Z,31.23
2019-05-28T04:59:39.060Z,28.90
2019-05-28T05:03:05.514Z,28.27
2019-05-28T05:05:37.547Z,25.72
2019-05-28T05:08:13.367Z,31.68
2019-05-28T05:10:48.940Z,29.50
2019-05-28T05:16:35.805Z,29.50
2019-05-28T05:19:09.888Z,30.35
2019-05-28T05:22:02.927Z,32.53
2019-05-28T05:28:46.250Z,32.38
2019-05-28T05:31:24.286Z,28.15
2019-05-28T05:33:58.909Z,30.05
2019-05-28T05:36:36.915Z,28.60
2019-05-28T05:39:09.320Z,27.77
2019-05-28T05:45:07.853Z,27.52
2019-05-28T05:47:44.401Z,28.40
2019-05-28T05:51:03.306Z,31.68
2019-05-28T05:53:38.636Z,35.95
2019-05-28T05:56:15.062Z,30.72
2019-05-28T05:59:35.480Z,31.15
2019-05-28T06:02:06.940Z,34.75
2019-05-28T06:07:09.152Z,30.45
2019-05-28T06:13:59.229Z,29.48
2019-05-28T06:16:50.335Z,29.82
2019-05-28T06:19:25.657Z,32.30
2019-05-28T06:21:56.363Z,29.10
2019-05-28T06:24:41.959Z,29.10
2019-05-28T06:27:23.690Z,27.13
2019-05-28T06:32:38.610Z,15.38
2019-05-28T06:35:10.595Z,21.82
2019-05-28T06:37:42.430Z,11.83
2019-05-28T06:40:14.897Z,15.48
2019-05-28T06:42:46.720Z,12.07
2019-05-28T06:45:25.856Z,13.98
2019-05-28T06:48:01.955Z,15.75
2019-05-28T06:51:13.982Z,16.67
2019-05-28T06:57:22.396Z,23.52
2019-05-28T07:03:29.705Z,26.75
2019-05-28T07:06:07.554Z,25.97
2019-05-28T07:08:35.346Z,29.15
2019-05-28T07:11:04.250Z,23.70
2019-05-28T07:13:41.085Z,23.00
2019-05-28T07:16:12.407Z,14.90
2019-05-28T07:21:19.616Z,19.05
2019-05-28T07:24:15.789Z,24.55
2019-05-28T07:26:47.070Z,21.68
2019-05-28T07:29:15.644Z,19.73
2019-05-28T07:31:46.305Z,16.35
2019-05-28T07:34:30.575Z,13.08
2019-05-28T07:37:00.258Z,12.35
2019-05-28T07:39:43.832Z,10.93
2019-05-28T07:42:12.599Z,11.83
2019-05-28T07:44:48.064Z,10.80
2019-05-28T07:47:56.009Z,13.20
2019-05-28T07:50:24.625Z,8.93
2019-05-28T07:56:27.012Z,9.55
2019-05-28T07:59:07.687Z,11.90
2019-05-28T08:01:39.956Z,11.10
2019-05-28T08:04:10.632Z,11.22
2019-05-28T08:06:54.350Z,10.97
2019-05-28T08:10:17.812Z,12.47
2019-05-28T08:12:55.412Z,8.75
2019-05-28T08:16:16.936Z,10.40
2019-05-28T08:18:29.539Z,12.37
2019-05-28T08:20:58.231Z,13.10
2019-05-28T08:23:50.622Z,9.93
2019-05-28T08:26:23.844Z,10.38
2019-05-28T08:28:55.574Z,9.30
2019-05-28T08:32:23.544Z,7.17
2019-05-28T08:35:05.064Z,7.78
2019-05-28T08:37:34.129Z,7.90
2019-05-28T08:43:33.986Z,10.30
2019-05-28T08:49:08.069Z,8.15
2019-05-28T08:52:04.113Z,7.83
2019-05-28T08:57:43.254Z,7.10
2019-05-28T09:00:36.402Z,5.17
2019-05-28T09:06:48.161Z,5.40
2019-05-28T09:09:19.801Z,4.57
2019-05-28T09:15:20.833Z,5.00
2019-05-28T09:21:17.842Z,4.55
2019-05-28T09:24:06.311Z,3.58
2019-05-28T09:26:37.941Z,5.37
2019-05-28T09:32:28.502Z,5.97
2019-05-28T09:35:06.511Z,3.50
2019-05-28T09:37:37.132Z,8.93
2019-05-28T09:40:09.134Z,5.80
2019-05-28T09:42:38.840Z,4.00
2019-05-28T09:45:22.465Z,5.80
2019-05-28T09:48:18.820Z,3.10
2019-05-28T09:50:51.945Z,4.45
2019-05-28T09:53:26.653Z,4.00
2019-05-28T09:55:58.400Z,4.40
2019-05-28T09:59:16.802Z,3.47
2019-05-28T10:01:48.732Z,3.08
2019-05-28T10:04:49.440Z,2.45
2019-05-28T10:07:14.095Z,2.95
2019-05-28T10:10:19.672Z,2.87
2019-05-28T10:20:06.050Z,2.08
2019-05-28T10:22:35.558Z,1.90
2019-05-28T10:25:09.202Z,2.50
2019-05-28T10:28:00.844Z,1.80
2019-05-28T10:30:27.033Z,2.72
2019-05-28T10:33:33.655Z,2.25
2019-05-28T10:36:06.033Z,2.90
2019-05-28T10:42:03.537Z,4.78
2019-05-28T10:44:52.070Z,3.02
2019-05-28T10:48:10.707Z,2.20
2019-05-28T10:50:44.166Z,2.15
2019-05-28T10:53:36.953Z,1.87
2019-05-28T10:56:56.044Z,4.37
2019-05-28T10:59:27.531Z,1.70
2019-05-28T11:02:13.316Z,2.65
2019-05-28T11:04:43.154Z,4.87
2019-05-28T11:07:21.736Z,4.60
2019-05-28T11:09:53.624Z,1.98
2019-05-28T11:12:23.660Z,2.65
2019-05-28T11:15:10.159Z,3.02
2019-05-28T11:17:44.184Z,2.77
2019-05-28T11:20:16.192Z,3.20
2019-05-28T11:23:18.741Z,2.40
2019-05-28T11:25:47.429Z,3.00
2019-05-28T11:28:45.888Z,2.33
2019-05-28T11:31:37.245Z,2.72
2019-05-28T11:34:06.444Z,4.40
2019-05-28T11:37:17.754Z,5.50
2019-05-28T11:40:08.928Z,3.72
2019-05-28T11:52:09.812Z,4.65
2019-05-28T11:54:38.592Z,3.62
2019-05-28T11:57:09.882Z,3.45
2019-05-28T12:02:48.538Z,2.22
2019-05-28T12:05:28.857Z,2.58
2019-05-28T12:08:46.059Z,2.70
2019-05-28T12:14:43.589Z,4.33
2019-05-28T12:17:15.299Z,3.08
2019-05-28T12:20:20.772Z,3.40
2019-05-28T12:23:09.638Z,3.00
2019-05-28T12:25:22.516Z,6.22
2019-05-28T12:28:37.931Z,3.47
2019-05-28T12:31:56.769Z,4.35
2019-05-28T12:34:41.752Z,4.22
2019-05-28T12:37:13.048Z,3.37
2019-05-28T12:42:09.483Z,4.80
2019-05-28T12:45:35.614Z,6.67
2019-05-28T12:52:11.197Z,2.20
2019-05-28T12:54:48.784Z,1.40
2019-05-28T12:57:20.182Z,0.98
2019-05-28T13:02:50.376Z,2.37
2019-05-28T13:05:26.223Z,2.40
2019-05-28T13:08:09.194Z,1.62
2019-05-28T13:10:33.815Z,1.60
2019-05-28T13:13:02.462Z,1.82
2019-05-28T13:15:33.794Z,1.80
2019-05-28T13:18:21.960Z,2.67
2019-05-28T13:20:56.483Z,2.52
2019-05-28T13:23:28.236Z,2.75
2019-05-28T13:26:04.930Z,4.42
2019-05-28T13:28:39.465Z,3.30
2019-05-28T13:31:11.052Z,5.90
2019-05-28T13:33:48.852Z,4.20
2019-05-28T13:36:26.656Z,5.17
2019-05-28T13:39:01.985Z,4.72
2019-05-28T13:41:36.561Z,4.17
2019-05-28T13:44:13.960Z,2.45
2019-05-28T13:46:42.641Z,2.42
2019-05-28T13:49:23.103Z,4.78
2019-05-28T13:51:53.032Z,2.72
2019-05-28T13:54:28.668Z,3.40
2019-05-28T13:57:09.613Z,4.15
2019-05-28T13:59:44.243Z,4.72
2019-05-28T14:02:15.859Z,3.72
2019-05-28T14:04:47.307Z,3.37
2019-05-28T14:07:26.661Z,3.15
2019-05-28T14:10:01.168Z,4.08
2019-05-28T14:12:32.532Z,6.53
2019-05-28T14:17:46.169Z,4.22
2019-05-28T14:20:15.248Z,4.95
2019-05-28T14:22:59.516Z,3.77
2019-05-28T14:25:56.085Z,4.75
2019-05-28T14:31:52.589Z,6.47
2019-05-28T14:34:41.905Z,4.95
2019-05-28T14:37:52.965Z,5.72
2019-05-28T14:40:24.473Z,6.40
2019-05-28T14:43:37.690Z,6.55
2019-05-28T14:46:10.953Z,5.05
2019-05-28T14:48:58.017Z,7.70
2019-05-28T14:51:29.718Z,7.42
2019-05-28T14:54:00.258Z,7.28
2019-05-28T14:56:35.999Z,9.13
2019-05-28T14:59:11.170Z,10.23
2019-05-28T15:01:46.265Z,6.12
2019-05-28T15:04:23.366Z,6.92
2019-05-28T15:06:57.770Z,8.20
2019-05-28T15:09:28.492Z,7.80
2019-05-28T15:12:06.196Z,7.87
2019-05-28T15:14:38.031Z,6.80
2019-05-28T15:17:12.426Z,5.40
2019-05-28T15:23:36.969Z,7.17
2019-05-28T15:26:11.755Z,6.58
2019-05-28T15:28:40.402Z,4.70
2019-05-28T15:31:20.050Z,5.53
2019-05-28T15:33:57.808Z,7.80
2019-05-28T15:36:32.336Z,5.87
2019-05-28T15:39:05.597Z,5.75
2019-05-28T15:41:35.331Z,6.10
2019-05-28T15:44:06.589Z,7.62
2019-05-28T15:46:40.451Z,7.08
2019-05-28T15:49:19.207Z,6.95
2019-05-28T15:51:48.801Z,5.40
2019-05-28T15:54:50.705Z,5.20
2019-05-28T15:57:48.233Z,5.95
2019-05-28T16:03:23.463Z,5.10
2019-05-28T16:09:20.943Z,6.12
2019-05-28T16:12:21.150Z,5.78
2019-05-28T16:14:55.578Z,3.12
2019-05-28T16:17:26.839Z,3.65
2019-05-28T16:19:55.434Z,6.50
2019-05-28T16:22:24.044Z,7.12
2019-05-28T16:24:54.005Z,3.65
2019-05-28T16:27:38.871Z,6.75
2019-05-28T16:30:13.402Z,4.12
2019-05-28T16:32:44.668Z,5.85
2019-05-28T16:35:17.475Z,5.28
2019-05-28T16:37:51.914Z,4.65
2019-05-28T16:47:18.834Z,8.23
2019-05-28T16:49:50.275Z,11.45
2019-05-28T16:55:19.187Z,11.60
2019-05-28T16:58:01.268Z,14.33
2019-05-28T17:00:35.291Z,9.73
2019-05-28T17:03:10.760Z,14.58
2019-05-28T17:05:45.375Z,11.63
2019-05-28T17:08:41.380Z,10.40
2019-05-28T17:11:12.720Z,9.05
2019-05-28T17:14:27.038Z,10.45
2019-05-28T17:17:02.972Z,12.35
2019-05-28T17:19:34.706Z,10.05
2019-05-28T17:22:06.361Z,12.10
2019-05-28T17:24:56.521Z,9.68
2019-05-28T17:27:25.195Z,12.50
2019-05-28T17:30:15.465Z,11.28
2019-05-28T17:32:42.156Z,13.32
2019-05-28T17:35:20.758Z,12.20
2019-05-28T17:37:50.973Z,10.80
2019-05-28T17:41:05.150Z,12.63
2019-05-28T17:44:28.788Z,14.75
2019-05-28T17:47:03.491Z,10.55
2019-05-28T17:49:42.910Z,11.40
2019-05-28T17:52:18.352Z,10.48
2019-05-28T17:54:53.946Z,9.08
2019-05-28T17:57:28.923Z,10.28
2019-05-28T18:00:04.063Z,10.58
2019-05-28T18:06:03.785Z,10.43
2019-05-28T18:08:35.119Z,10.60
2019-05-28T18:13:52.475Z,15.00
2019-05-28T18:16:22.856Z,12.18
2019-05-28T18:19:01.301Z,13.32
2019-05-28T18:21:36.493Z,12.40
2019-05-28T18:24:07.604Z,13.93
2019-05-28T18:26:40.731Z,14.60
2019-05-28T18:29:12.729Z,15.63
2019-05-28T18:31:44.789Z,14.23
2019-05-28T18:34:23.587Z,17.05
2019-05-28T18:36:55.730Z,14.15
2019-05-28T18:39:29.089Z,14.38
2019-05-28T18:42:38.885Z,18.25
2019-05-28T18:45:15.983Z,17.62
2019-05-28T18:47:49.441Z,15.75
2019-05-28T18:50:29.925Z,16.12
2019-05-28T18:53:49.679Z,15.72
2019-05-28T18:57:00.116Z,16.00
2019-05-28T19:02:14.834Z,15.60
2019-05-28T19:05:37.152Z,16.20
2019-05-28T19:08:46.709Z,17.20
2019-05-28T19:12:13.353Z,16.12
2019-05-28T19:15:05.629Z,14.85
2019-05-28T19:17:32.664Z,16.48
2019-05-28T19:23:41.562Z,17.90
2019-05-28T19:26:12.880Z,18.75
2019-05-28T19:28:42.022Z,16.48
2019-05-28T19:31:14.123Z,21.90
2019-05-28T19:33:44.061Z,16.27
2019-05-28T19:36:19.437Z,13.95
2019-05-28T19:39:46.975Z,13.80
2019-05-28T19:42:34.535Z,11.38
2019-05-28T19:48:48.513Z,10.00
2019-05-28T19:51:20.089Z,10.78
2019-05-28T19:56:19.288Z,9.93
2019-05-28T19:58:50.187Z,8.85
2019-05-28T20:01:21.809Z,10.32
2019-05-28T20:04:02.961Z,10.03
2019-05-28T20:06:34.963Z,9.98
2019-05-28T20:09:08.542Z,10.85
2019-05-28T20:11:49.396Z,12.05
2019-05-28T20:14:24.384Z,13.62
2019-05-28T20:17:22.399Z,12.65
2019-05-28T20:19:58.292Z,13.80
2019-05-28T20:22:30.850Z,14.55
2019-05-28T20:25:14.026Z,15.60
2019-05-28T20:27:45.838Z,17.45
2019-05-28T20:31:14.486Z,20.17
2019-05-28T20:33:45.294Z,20.45
2019-05-28T20:36:18.179Z,23.00
2019-05-28T20:38:57.448Z,18.70
2019-05-28T20:41:26.764Z,22.98
2019-05-28T20:43:55.944Z,23.25
2019-05-28T20:46:27.944Z,21.00
2019-05-28T20:49:00.813Z,25.00
2019-05-28T20:55:11.155Z,26.12
2019-05-28T20:57:42.847Z,21.95
2019-05-28T21:00:26.195Z,21.10
2019-05-28T21:03:17.355Z,20.92
2019-05-28T21:14:59.860Z,27.95
2019-05-28T21:21:12.034Z,23.73
2019-05-28T21:23:43.772Z,19.62
2019-05-28T21:26:33.650Z,20.43
2019-05-28T21:29:06.589Z,18.70
2019-05-28T21:31:56.684Z,15.05
2019-05-28T21:34:28.278Z,15.38
2019-05-28T21:39:35.066Z,13.25
2019-05-28T21:42:18.927Z,14.50
2019-05-28T21:45:02.507Z,10.13
2019-05-28T21:47:34.588Z,10.10
2019-05-28T21:50:04.688Z,10.55
2019-05-28T21:52:36.068Z,11.22
2019-05-28T21:55:13.391Z,11.93
2019-05-28T21:57:45.324Z,12.63
2019-05-28T22:00:30.574Z,12.68
2019-05-28T22:03:00.656Z,12.23
2019-05-28T22:05:33.403Z,12.13
2019-05-28T22:08:05.493Z,12.35
2019-05-28T22:10:40.969Z,14.65
2019-05-28T22:13:22.130Z,16.23
2019-05-28T22:15:51.518Z,15.45
2019-05-28T22:18:22.930Z,13.58
2019-05-28T22:21:04.429Z,13.58
2019-05-28T22:26:12.770Z,14.00
2019-05-28T22:28:44.650Z,16.77
2019-05-28T22:31:16.132Z,19.67
2019-05-28T22:34:00.975Z,16.62
2019-05-28T22:36:35.764Z,16.23
2019-05-28T22:39:10.443Z,19.05
2019-05-28T22:41:42.711Z,18.70
2019-05-28T22:44:14.510Z,17.98
2019-05-28T22:46:45.837Z,18.02
2019-05-28T22:49:29.563Z,17.10
2019-05-28T22:52:29.538Z,16.90
2019-05-28T22:55:33.070Z,15.32
2019-05-28T23:01:41.161Z,16.32
2019-05-28T23:04:16.684Z,19.70
2019-05-28T23:07:30.802Z,17.20
2019-05-28T23:10:07.928Z,18.17
2019-05-28T23:12:39.314Z,18.10
2019-05-28T23:15:13.531Z,19.42
2019-05-28T23:17:57.560Z,18.70
2019-05-28T23:20:26.431Z,16.70
2019-05-28T23:23:01.024Z,15.93
2019-05-28T23:25:29.794Z,15.20
2019-05-28T23:28:01.442Z,12.93
2019-05-28T23:33:16.303Z,14.83
2019-05-28T23:36:04.454Z,12.88
2019-05-28T23:38:36.815Z,14.03
2019-05-28T23:41:28.535Z,14.68
2019-05-28T23:44:02.295Z,13.53
2019-05-28T23:46:40.479Z,12.13
2019-05-28T23:49:14.368Z,11.88
2019-05-28T23:51:46.421Z,14.03
2019-05-28T23:54:41.798Z,20.07
2019-05-28T23:58:09.772Z,16.93
